sensor_id;sensor_type;location;lat;lon;timestamp;pressure;altitude;pressure_sealevel;temperature;humidity
11174;BME280;5643;50.856;12.088;2022-08-02T00:02:23;99778.66;;;23.45;80.37
11174;BME280;5643;50.856;12.088;2022-08-02T00:04:51;99772.03;;;22.99;83.01
11174;BME280;5643;50.856;12.088;2022-08-02T00:07:19;99772.50;;;23.02;83.22
11174;BME280;5643;50.856;12.088;2022-08-02T00:09:48;99778.06;;;22.21;87.63
11174;BME280;5643;50.856;12.088;2022-08-02T00:12:16;99780.09;;;23.05;81.87
11174;BME280;5643;50.856;12.088;2022-08-02T00:14:43;99776.09;;;22.94;81.56
11174;BME280;5643;50.856;12.088;2022-08-02T00:17:11;99778.63;;;22.81;83.62
11174;BME280;5643;50.856;12.088;2022-08-02T00:19:38;99777.41;;;22.33;86.95
11174;BME280;5643;50.856;12.088;2022-08-02T00:22:06;99778.06;;;22.21;88.72
11174;BME280;5643;50.856;12.088;2022-08-02T00:24:33;99773.53;;;23.22;83.27
11174;BME280;5643;50.856;12.088;2022-08-02T00:27:02;99777.53;;;22.76;81.67
11174;BME280;5643;50.856;12.088;2022-08-02T00:29:32;99762.69;;;23.03;82.50
11174;BME280;5643;50.856;12.088;2022-08-02T00:32:00;99759.78;;;22.32;83.97
11174;BME280;5643;50.856;12.088;2022-08-02T00:34:28;99773.50;;;22.80;81.20
11174;BME280;5643;50.856;12.088;2022-08-02T00:36:55;99774.81;;;22.40;84.73
11174;BME280;5643;50.856;12.088;2022-08-02T00:39:23;99780.69;;;22.50;86.02
11174;BME280;5643;50.856;12.088;2022-08-02T00:41:51;99766.69;;;22.63;83.47
11174;BME280;5643;50.856;12.088;2022-08-02T00:44:20;99762.72;;;22.08;88.09
11174;BME280;5643;50.856;12.088;2022-08-02T00:46:48;99771.72;;;22.07;86.98
11174;BME280;5643;50.856;12.088;2022-08-02T00:49:15;99782.25;;;22.44;84.57
11174;BME280;5643;50.856;12.088;2022-08-02T00:51:43;99782.22;;;22.59;82.29
11174;BME280;5643;50.856;12.088;2022-08-02T00:54:11;99777.97;;;22.79;79.96
11174;BME280;5643;50.856;12.088;2022-08-02T00:56:39;99786.28;;;22.11;82.97
11174;BME280;5643;50.856;12.088;2022-08-02T00:59:07;99774.63;;;22.71;81.00
11174;BME280;5643;50.856;12.088;2022-08-02T01:01:36;99777.94;;;22.43;85.27
11174;BME280;5643;50.856;12.088;2022-08-02T01:04:08;99776.19;;;23.01;79.92
11174;BME280;5643;50.856;12.088;2022-08-02T01:06:40;99774.09;;;23.18;80.38
11174;BME280;5643;50.856;12.088;2022-08-02T01:09:08;99785.16;;;21.91;88.15
11174;BME280;5643;50.856;12.088;2022-08-02T01:11:36;99785.16;;;22.64;84.94
11174;BME280;5643;50.856;12.088;2022-08-02T01:14:06;99791.44;;;21.98;90.32
11174;BME280;5643;50.856;12.088;2022-08-02T01:16:39;99787.41;;;22.46;86.79
11174;BME280;5643;50.856;12.088;2022-08-02T01:19:22;99784.22;;;22.86;83.11
11174;BME280;5643;50.856;12.088;2022-08-02T01:24:58;99776.28;;;24.12;76.17
11174;BME280;5643;50.856;12.088;2022-08-02T01:27:39;99769.88;;;23.30;80.77
11174;BME280;5643;50.856;12.088;2022-08-02T01:30:11;99773.63;;;22.93;82.25
11174;BME280;5643;50.856;12.088;2022-08-02T01:32:44;99774.75;;;22.84;83.10
11174;BME280;5643;50.856;12.088;2022-08-02T01:35:16;99783.09;;;22.95;81.27
11174;BME280;5643;50.856;12.088;2022-08-02T01:37:48;99779.47;;;22.52;84.44
11174;BME280;5643;50.856;12.088;2022-08-02T01:40:21;99768.19;;;23.01;81.12
11174;BME280;5643;50.856;12.088;2022-08-02T01:42:53;99768.09;;;22.73;82.68
11174;BME280;5643;50.856;12.088;2022-08-02T01:45:27;99769.84;;;23.23;77.38
11174;BME280;5643;50.856;12.088;2022-08-02T01:47:58;99776.03;;;23.09;77.80
11174;BME280;5643;50.856;12.088;2022-08-02T01:50:28;99778.44;;;22.83;78.50
11174;BME280;5643;50.856;12.088;2022-08-02T01:53:01;99772.13;;;21.81;85.28
11174;BME280;5643;50.856;12.088;2022-08-02T01:55:34;99787.63;;;21.78;87.72
11174;BME280;5643;50.856;12.088;2022-08-02T01:58:05;99793.97;;;22.79;79.25
11174;BME280;5643;50.856;12.088;2022-08-02T02:00:37;99794.06;;;22.86;80.11
11174;BME280;5643;50.856;12.088;2022-08-02T02:03:09;99791.53;;;22.19;84.60
11174;BME280;5643;50.856;12.088;2022-08-02T02:05:40;99786.94;;;22.13;84.39
11174;BME280;5643;50.856;12.088;2022-08-02T02:08:09;99784.00;;;22.37;81.11
11174;BME280;5643;50.856;12.088;2022-08-02T02:10:39;99789.44;;;21.62;86.29
11174;BME280;5643;50.856;12.088;2022-08-02T02:13:11;99791.53;;;22.34;80.67
11174;BME280;5643;50.856;12.088;2022-08-02T02:15:44;99799.56;;;22.84;79.12
11174;BME280;5643;50.856;12.088;2022-08-02T02:18:17;99798.88;;;22.97;78.57
11174;BME280;5643;50.856;12.088;2022-08-02T02:20:45;99796.56;;;22.43;79.37
11174;BME280;5643;50.856;12.088;2022-08-02T02:23:13;99799.53;;;21.82;83.24
11174;BME280;5643;50.856;12.088;2022-08-02T02:25:42;99792.38;;;22.05;82.82
11174;BME280;5643;50.856;12.088;2022-08-02T02:28:11;99794.06;;;21.83;84.22
11174;BME280;5643;50.856;12.088;2022-08-02T02:30:45;99787.94;;;22.27;80.90
11174;BME280;5643;50.856;12.088;2022-08-02T02:33:17;99788.88;;;22.19;80.20
11174;BME280;5643;50.856;12.088;2022-08-02T02:35:47;99790.47;;;22.64;76.95
11174;BME280;5643;50.856;12.088;2022-08-02T02:38:17;99793.97;;;21.91;80.56
11174;BME280;5643;50.856;12.088;2022-08-02T02:40:48;99792.47;;;22.41;78.63
11174;BME280;5643;50.856;12.088;2022-08-02T02:43:16;99793.38;;;22.33;77.67
11174;BME280;5643;50.856;12.088;2022-08-02T02:45:46;99794.16;;;21.52;83.12
11174;BME280;5643;50.856;12.088;2022-08-02T02:48:14;99789.00;;;21.74;82.49
11174;BME280;5643;50.856;12.088;2022-08-02T02:50:44;99787.69;;;22.36;78.27
11174;BME280;5643;50.856;12.088;2022-08-02T02:53:12;99790.00;;;22.10;79.82
11174;BME280;5643;50.856;12.088;2022-08-02T02:55:43;99788.59;;;22.43;75.97
11174;BME280;5643;50.856;12.088;2022-08-02T02:58:12;99778.03;;;22.06;78.23
11174;BME280;5643;50.856;12.088;2022-08-02T03:00:40;99782.63;;;21.60;82.21
11174;BME280;5643;50.856;12.088;2022-08-02T03:03:26;99781.47;;;22.00;76.69
11174;BME280;5643;50.856;12.088;2022-08-02T03:05:55;99792.81;;;21.71;79.78
11174;BME280;5643;50.856;12.088;2022-08-02T03:08:22;99796.81;;;21.90;78.64
11174;BME280;5643;50.856;12.088;2022-08-02T03:10:50;99796.03;;;21.66;79.91
11174;BME280;5643;50.856;12.088;2022-08-02T03:13:18;99799.34;;;21.68;80.04
11174;BME280;5643;50.856;12.088;2022-08-02T03:15:46;99793.28;;;22.12;77.09
11174;BME280;5643;50.856;12.088;2022-08-02T03:18:33;99789.53;;;22.21;76.43
11174;BME280;5643;50.856;12.088;2022-08-02T03:21:01;99792.53;;;22.18;76.16
11174;BME280;5643;50.856;12.088;2022-08-02T03:23:30;99793.94;;;21.39;80.34
11174;BME280;5643;50.856;12.088;2022-08-02T03:25:58;99795.38;;;22.02;75.82
11174;BME280;5643;50.856;12.088;2022-08-02T03:28:26;99804.28;;;21.94;75.64
11174;BME280;5643;50.856;12.088;2022-08-02T03:30:53;99799.88;;;22.16;75.16
11174;BME280;5643;50.856;12.088;2022-08-02T03:33:23;99799.41;;;21.23;80.40
11174;BME280;5643;50.856;12.088;2022-08-02T03:35:53;99797.44;;;21.09;82.78
11174;BME280;5643;50.856;12.088;2022-08-02T03:38:22;99799.19;;;21.24;80.73
11174;BME280;5643;50.856;12.088;2022-08-02T03:40:52;99801.63;;;21.72;77.28
11174;BME280;5643;50.856;12.088;2022-08-02T03:43:21;99796.13;;;21.58;77.41
11174;BME280;5643;50.856;12.088;2022-08-02T03:45:49;99803.69;;;21.47;78.95
11174;BME280;5643;50.856;12.088;2022-08-02T03:48:19;99809.47;;;21.88;76.08
11174;BME280;5643;50.856;12.088;2022-08-02T03:50:48;99805.50;;;21.69;75.69
11174;BME280;5643;50.856;12.088;2022-08-02T03:53:18;99811.44;;;21.71;75.48
11174;BME280;5643;50.856;12.088;2022-08-02T03:55:46;99810.56;;;21.56;76.16
11174;BME280;5643;50.856;12.088;2022-08-02T03:58:17;99807.66;;;21.65;77.44
11174;BME280;5643;50.856;12.088;2022-08-02T04:00:45;99818.81;;;21.84;75.31
11174;BME280;5643;50.856;12.088;2022-08-02T04:03:13;99828.78;;;21.82;74.99
11174;BME280;5643;50.856;12.088;2022-08-02T04:05:42;99832.34;;;21.59;77.52
11174;BME280;5643;50.856;12.088;2022-08-02T04:08:10;99836.81;;;21.36;79.39
11174;BME280;5643;50.856;12.088;2022-08-02T04:10:39;99836.88;;;21.28;80.59
11174;BME280;5643;50.856;12.088;2022-08-02T04:13:26;99847.25;;;21.60;80.46
11174;BME280;5643;50.856;12.088;2022-08-02T04:15:57;99853.34;;;21.46;82.53
11174;BME280;5643;50.856;12.088;2022-08-02T04:18:31;99851.41;;;21.09;86.17
11174;BME280;5643;50.856;12.088;2022-08-02T04:21:03;99842.13;;;21.59;83.57
11174;BME280;5643;50.856;12.088;2022-08-02T04:23:34;99846.91;;;21.10;83.91
11174;BME280;5643;50.856;12.088;2022-08-02T04:26:06;99863.00;;;20.85;87.37
11174;BME280;5643;50.856;12.088;2022-08-02T04:28:36;99851.13;;;21.58;82.38
11174;BME280;5643;50.856;12.088;2022-08-02T04:31:04;99856.06;;;22.21;81.08
11174;BME280;5643;50.856;12.088;2022-08-02T04:33:33;99853.69;;;22.26;79.69
11174;BME280;5643;50.856;12.088;2022-08-02T04:36:01;99845.41;;;21.61;85.07
11174;BME280;5643;50.856;12.088;2022-08-02T04:38:29;99850.56;;;21.09;87.57
11174;BME280;5643;50.856;12.088;2022-08-02T04:40:56;99846.47;;;21.97;82.63
11174;BME280;5643;50.856;12.088;2022-08-02T04:43:26;99843.56;;;22.66;76.83
11174;BME280;5643;50.856;12.088;2022-08-02T04:45:54;99849.69;;;22.22;81.57
11174;BME280;5643;50.856;12.088;2022-08-02T04:48:21;99850.16;;;21.74;83.68
11174;BME280;5643;50.856;12.088;2022-08-02T04:50:50;99847.53;;;22.40;79.48
11174;BME280;5643;50.856;12.088;2022-08-02T04:53:17;99847.63;;;22.76;77.90
11174;BME280;5643;50.856;12.088;2022-08-02T04:55:45;99841.00;;;22.14;81.01
11174;BME280;5643;50.856;12.088;2022-08-02T04:58:13;99849.06;;;22.64;79.05
11174;BME280;5643;50.856;12.088;2022-08-02T05:00:42;99837.41;;;23.16;76.33
11174;BME280;5643;50.856;12.088;2022-08-02T05:03:10;99837.72;;;22.41;80.91
11174;BME280;5643;50.856;12.088;2022-08-02T05:05:39;99844.97;;;22.76;80.12
11174;BME280;5643;50.856;12.088;2022-08-02T05:08:07;99843.38;;;22.82;80.22
11174;BME280;5643;50.856;12.088;2022-08-02T05:10:35;99840.09;;;23.37;78.27
11174;BME280;5643;50.856;12.088;2022-08-02T05:13:04;99844.78;;;23.35;79.23
11174;BME280;5643;50.856;12.088;2022-08-02T05:15:32;99847.97;;;23.66;79.33
11174;BME280;5643;50.856;12.088;2022-08-02T05:18:01;99844.97;;;25.14;70.95
11174;BME280;5643;50.856;12.088;2022-08-02T05:20:29;99852.09;;;25.94;65.91
11174;BME280;5643;50.856;12.088;2022-08-02T05:22:57;99853.56;;;24.96;72.12
11174;BME280;5643;50.856;12.088;2022-08-02T05:25:25;99856.03;;;24.97;71.67
11174;BME280;5643;50.856;12.088;2022-08-02T05:27:52;99857.03;;;24.90;73.09
11174;BME280;5643;50.856;12.088;2022-08-02T05:30:20;99862.88;;;25.20;72.05
11174;BME280;5643;50.856;12.088;2022-08-02T05:32:49;99854.38;;;24.96;71.85
11174;BME280;5643;50.856;12.088;2022-08-02T05:35:20;99864.50;;;24.67;74.26
11174;BME280;5643;50.856;12.088;2022-08-02T05:37:49;99866.69;;;24.91;74.64
11174;BME280;5643;50.856;12.088;2022-08-02T05:40:17;99872.09;;;25.11;72.78
11174;BME280;5643;50.856;12.088;2022-08-02T05:42:44;99878.88;;;25.07;74.42
11174;BME280;5643;50.856;12.088;2022-08-02T05:45:12;99869.06;;;25.27;72.55
11174;BME280;5643;50.856;12.088;2022-08-02T05:47:40;99877.59;;;25.63;70.16
11174;BME280;5643;50.856;12.088;2022-08-02T05:50:09;99875.34;;;26.33;67.54
11174;BME280;5643;50.856;12.088;2022-08-02T05:52:44;99869.78;;;26.08;68.00
11174;BME280;5643;50.856;12.088;2022-08-02T05:55:16;99867.31;;;26.19;67.80
11174;BME280;5643;50.856;12.088;2022-08-02T05:57:50;99867.09;;;26.41;64.46
11174;BME280;5643;50.856;12.088;2022-08-02T06:00:20;99888.56;;;25.08;70.78
11174;BME280;5643;50.856;12.088;2022-08-02T06:03:02;99873.47;;;26.33;66.10
11174;BME280;5643;50.856;12.088;2022-08-02T06:05:32;99886.75;;;26.92;61.50
11174;BME280;5643;50.856;12.088;2022-08-02T06:08:03;99876.78;;;26.02;65.30
11174;BME280;5643;50.856;12.088;2022-08-02T06:10:35;99875.25;;;26.65;62.81
11174;BME280;5643;50.856;12.088;2022-08-02T06:13:07;99873.16;;;27.25;61.22
11174;BME280;5643;50.856;12.088;2022-08-02T06:15:36;99869.66;;;27.87;59.01
11174;BME280;5643;50.856;12.088;2022-08-02T06:18:05;99881.72;;;25.92;63.11
11174;BME280;5643;50.856;12.088;2022-08-02T06:20:34;99883.38;;;25.86;65.52
11174;BME280;5643;50.856;12.088;2022-08-02T06:23:05;99881.31;;;26.02;63.11
11174;BME280;5643;50.856;12.088;2022-08-02T06:25:34;99873.59;;;26.71;62.59
11174;BME280;5643;50.856;12.088;2022-08-02T06:28:03;99876.53;;;26.56;60.26
11174;BME280;5643;50.856;12.088;2022-08-02T06:30:31;99873.84;;;27.14;59.25
11174;BME280;5643;50.856;12.088;2022-08-02T06:32:59;99858.19;;;29.33;52.84
11174;BME280;5643;50.856;12.088;2022-08-02T06:35:40;99869.44;;;28.93;52.90
11174;BME280;5643;50.856;12.088;2022-08-02T06:38:20;99856.88;;;29.88;50.28
11174;BME280;5643;50.856;12.088;2022-08-02T06:40:53;99861.34;;;28.20;51.88
11174;BME280;5643;50.856;12.088;2022-08-02T06:43:28;99856.72;;;28.64;51.60
11174;BME280;5643;50.856;12.088;2022-08-02T06:45:58;99852.78;;;28.05;51.94
11174;BME280;5643;50.856;12.088;2022-08-02T06:48:25;99852.28;;;28.76;51.53
11174;BME280;5643;50.856;12.088;2022-08-02T06:50:53;99843.25;;;29.18;51.48
11174;BME280;5643;50.856;12.088;2022-08-02T06:53:22;99847.34;;;28.73;50.03
11174;BME280;5643;50.856;12.088;2022-08-02T06:55:49;99853.13;;;28.15;52.66
11174;BME280;5643;50.856;12.088;2022-08-02T06:58:17;99856.31;;;29.33;49.82
11174;BME280;5643;50.856;12.088;2022-08-02T07:00:44;99851.84;;;29.80;48.81
11174;BME280;5643;50.856;12.088;2022-08-02T07:03:12;99850.91;;;28.30;51.52
11174;BME280;5643;50.856;12.088;2022-08-02T07:05:40;99853.06;;;28.58;53.50
11174;BME280;5643;50.856;12.088;2022-08-02T07:08:11;99853.00;;;28.83;51.50
11174;BME280;5643;50.856;12.088;2022-08-02T07:10:40;99845.69;;;28.35;53.92
11174;BME280;5643;50.856;12.088;2022-08-02T07:13:08;99844.50;;;29.34;52.37
11174;BME280;5643;50.856;12.088;2022-08-02T07:15:36;99839.34;;;29.33;49.27
11174;BME280;5643;50.856;12.088;2022-08-02T07:18:03;99839.41;;;28.96;53.55
11174;BME280;5643;50.856;12.088;2022-08-02T07:20:31;99840.50;;;27.35;55.32
11174;BME280;5643;50.856;12.088;2022-08-02T07:22:59;99837.88;;;28.09;54.35
11174;BME280;5643;50.856;12.088;2022-08-02T07:25:26;99840.94;;;29.04;52.56
11174;BME280;5643;50.856;12.088;2022-08-02T07:27:55;99837.88;;;29.18;49.96
11174;BME280;5643;50.856;12.088;2022-08-02T07:30:23;99840.44;;;28.22;51.75
11174;BME280;5643;50.856;12.088;2022-08-02T07:32:51;99843.81;;;28.11;52.88
11174;BME280;5643;50.856;12.088;2022-08-02T07:35:19;99834.66;;;29.40;50.29
11174;BME280;5643;50.856;12.088;2022-08-02T07:37:47;99832.22;;;29.38;48.60
11174;BME280;5643;50.856;12.088;2022-08-02T07:40:16;99823.72;;;29.64;49.26
11174;BME280;5643;50.856;12.088;2022-08-02T07:42:44;99826.31;;;29.83;46.86
11174;BME280;5643;50.856;12.088;2022-08-02T07:45:13;99829.47;;;29.80;51.99
11174;BME280;5643;50.856;12.088;2022-08-02T07:47:42;99834.66;;;28.62;51.31
11174;BME280;5643;50.856;12.088;2022-08-02T07:50:11;99833.06;;;27.93;54.00
11174;BME280;5643;50.856;12.088;2022-08-02T07:52:39;99831.19;;;27.93;52.64
11174;BME280;5643;50.856;12.088;2022-08-02T07:55:08;99828.34;;;29.34;51.84
11174;BME280;5643;50.856;12.088;2022-08-02T07:57:36;99838.00;;;29.23;51.65
11174;BME280;5643;50.856;12.088;2022-08-02T08:00:06;99823.28;;;29.79;48.36
11174;BME280;5643;50.856;12.088;2022-08-02T08:02:36;99819.38;;;30.45;49.54
11174;BME280;5643;50.856;12.088;2022-08-02T08:05:05;99815.16;;;30.37;49.43
11174;BME280;5643;50.856;12.088;2022-08-02T08:07:33;99820.50;;;29.03;55.92
11174;BME280;5643;50.856;12.088;2022-08-02T08:10:01;99813.31;;;30.49;50.61
11174;BME280;5643;50.856;12.088;2022-08-02T08:12:30;99805.47;;;30.13;49.04
11174;BME280;5643;50.856;12.088;2022-08-02T08:14:57;99806.56;;;30.00;51.51
11174;BME280;5643;50.856;12.088;2022-08-02T08:17:25;99802.34;;;31.08;46.68
11174;BME280;5643;50.856;12.088;2022-08-02T08:19:54;99818.09;;;28.47;49.42
11174;BME280;5643;50.856;12.088;2022-08-02T08:22:23;99805.69;;;31.15;48.84
11174;BME280;5643;50.856;12.088;2022-08-02T08:24:51;99804.75;;;29.71;48.79
11174;BME280;5643;50.856;12.088;2022-08-02T08:27:20;99804.56;;;29.31;51.49
11174;BME280;5643;50.856;12.088;2022-08-02T08:29:48;99805.91;;;28.26;49.53
11174;BME280;5643;50.856;12.088;2022-08-02T08:32:16;99801.84;;;30.07;47.43
11174;BME280;5643;50.856;12.088;2022-08-02T08:34:44;99796.56;;;29.78;51.12
11174;BME280;5643;50.856;12.088;2022-08-02T08:37:13;99805.63;;;29.00;50.02
11174;BME280;5643;50.856;12.088;2022-08-02T08:39:41;99802.91;;;29.83;47.66
11174;BME280;5643;50.856;12.088;2022-08-02T08:42:08;99801.97;;;30.76;48.76
11174;BME280;5643;50.856;12.088;2022-08-02T08:44:37;99798.66;;;29.76;49.30
11174;BME280;5643;50.856;12.088;2022-08-02T08:47:04;99797.03;;;29.86;48.16
11174;BME280;5643;50.856;12.088;2022-08-02T08:49:36;99794.59;;;32.11;45.88
11174;BME280;5643;50.856;12.088;2022-08-02T08:52:10;99793.28;;;30.74;46.47
11174;BME280;5643;50.856;12.088;2022-08-02T08:54:40;99787.00;;;31.92;45.27
11174;BME280;5643;50.856;12.088;2022-08-02T08:57:11;99789.22;;;30.71;46.25
11174;BME280;5643;50.856;12.088;2022-08-02T08:59:38;99792.72;;;29.97;48.29
11174;BME280;5643;50.856;12.088;2022-08-02T09:02:06;99793.78;;;30.07;49.16
11174;BME280;5643;50.856;12.088;2022-08-02T09:04:35;99786.97;;;30.17;48.14
11174;BME280;5643;50.856;12.088;2022-08-02T09:07:03;99792.91;;;30.42;49.10
11174;BME280;5643;50.856;12.088;2022-08-02T09:09:30;99800.06;;;30.48;48.92
11174;BME280;5643;50.856;12.088;2022-08-02T09:12:13;99791.25;;;30.92;45.47
11174;BME280;5643;50.856;12.088;2022-08-02T09:14:41;99792.38;;;30.68;46.59
11174;BME280;5643;50.856;12.088;2022-08-02T09:17:10;99785.41;;;30.84;47.73
11174;BME280;5643;50.856;12.088;2022-08-02T09:19:39;99781.19;;;31.33;45.29
11174;BME280;5643;50.856;12.088;2022-08-02T09:22:11;99772.38;;;31.71;44.97
11174;BME280;5643;50.856;12.088;2022-08-02T09:24:43;99778.63;;;32.10;42.92
11174;BME280;5643;50.856;12.088;2022-08-02T09:27:14;99767.91;;;32.37;43.85
11174;BME280;5643;50.856;12.088;2022-08-02T09:29:50;99772.50;;;31.81;45.62
11174;BME280;5643;50.856;12.088;2022-08-02T09:32:18;99768.13;;;31.75;42.73
11174;BME280;5643;50.856;12.088;2022-08-02T09:34:47;99749.09;;;33.54;42.84
11174;BME280;5643;50.856;12.088;2022-08-02T09:37:23;99750.50;;;33.67;41.71
11174;BME280;5643;50.856;12.088;2022-08-02T09:39:51;99745.78;;;33.84;41.46
11174;BME280;5643;50.856;12.088;2022-08-02T09:42:21;99759.28;;;31.80;45.84
11174;BME280;5643;50.856;12.088;2022-08-02T09:44:52;99766.94;;;32.48;45.43
11174;BME280;5643;50.856;12.088;2022-08-02T09:47:22;99771.06;;;31.73;44.46
11174;BME280;5643;50.856;12.088;2022-08-02T09:49:50;99753.28;;;33.08;42.39
11174;BME280;5643;50.856;12.088;2022-08-02T09:52:22;99761.16;;;32.83;43.75
11174;BME280;5643;50.856;12.088;2022-08-02T09:54:52;99745.03;;;33.99;41.15
11174;BME280;5643;50.856;12.088;2022-08-02T09:57:28;99743.94;;;34.52;39.65
11174;BME280;5643;50.856;12.088;2022-08-02T09:59:58;99749.16;;;33.64;39.78
11174;BME280;5643;50.856;12.088;2022-08-02T10:02:26;99754.66;;;32.84;39.23
11174;BME280;5643;50.856;12.088;2022-08-02T10:04:57;99749.47;;;31.73;41.07
11174;BME280;5643;50.856;12.088;2022-08-02T10:07:25;99737.41;;;32.90;40.21
11174;BME280;5643;50.856;12.088;2022-08-02T10:09:53;99732.78;;;32.37;42.92
11174;BME280;5643;50.856;12.088;2022-08-02T10:12:22;99736.66;;;32.24;43.11
11174;BME280;5643;50.856;12.088;2022-08-02T10:14:51;99738.25;;;32.69;41.47
11174;BME280;5643;50.856;12.088;2022-08-02T10:17:20;99734.06;;;32.34;41.78
11174;BME280;5643;50.856;12.088;2022-08-02T10:19:49;99734.09;;;33.41;39.77
11174;BME280;5643;50.856;12.088;2022-08-02T10:22:18;99739.72;;;34.91;38.85
11174;BME280;5643;50.856;12.088;2022-08-02T10:24:47;99726.94;;;34.82;40.13
11174;BME280;5643;50.856;12.088;2022-08-02T10:27:17;99736.19;;;35.01;40.10
11174;BME280;5643;50.856;12.088;2022-08-02T10:29:47;99743.13;;;34.51;39.04
11174;BME280;5643;50.856;12.088;2022-08-02T10:32:26;99739.47;;;33.73;40.96
11174;BME280;5643;50.856;12.088;2022-08-02T10:34:59;99729.44;;;35.34;38.60
11174;BME280;5643;50.856;12.088;2022-08-02T10:37:30;99718.41;;;34.43;39.26
11174;BME280;5643;50.856;12.088;2022-08-02T10:39:59;99718.72;;;34.61;37.59
11174;BME280;5643;50.856;12.088;2022-08-02T10:42:49;99707.69;;;34.93;36.85
11174;BME280;5643;50.856;12.088;2022-08-02T10:45:19;99717.34;;;34.59;39.38
11174;BME280;5643;50.856;12.088;2022-08-02T10:48:02;99707.06;;;36.52;34.42
11174;BME280;5643;50.856;12.088;2022-08-02T10:50:52;99713.22;;;34.31;38.37
11174;BME280;5643;50.856;12.088;2022-08-02T10:53:22;99709.44;;;33.75;38.68
11174;BME280;5643;50.856;12.088;2022-08-02T10:55:50;99697.31;;;35.71;35.85
11174;BME280;5643;50.856;12.088;2022-08-02T10:58:19;99697.75;;;34.27;37.85
11174;BME280;5643;50.856;12.088;2022-08-02T11:00:48;99692.19;;;35.04;36.81
11174;BME280;5643;50.856;12.088;2022-08-02T11:03:38;99691.09;;;35.45;36.16
11174;BME280;5643;50.856;12.088;2022-08-02T11:06:08;99692.94;;;33.87;36.86
11174;BME280;5643;50.856;12.088;2022-08-02T11:08:36;99683.25;;;34.98;36.72
11174;BME280;5643;50.856;12.088;2022-08-02T11:11:16;99682.03;;;34.34;36.73
11174;BME280;5643;50.856;12.088;2022-08-02T11:14:01;99664.47;;;35.47;34.77
11174;BME280;5643;50.856;12.088;2022-08-02T11:17:06;99670.03;;;36.56;34.46
11174;BME280;5643;50.856;12.088;2022-08-02T11:20:14;99669.97;;;36.12;35.55
11174;BME280;5643;50.856;12.088;2022-08-02T11:22:44;99673.59;;;34.20;35.98
11174;BME280;5643;50.856;12.088;2022-08-02T11:25:31;99659.38;;;35.21;35.45
11174;BME280;5643;50.856;12.088;2022-08-02T11:28:08;99659.31;;;35.46;34.24
11174;BME280;5643;50.856;12.088;2022-08-02T11:30:36;99650.31;;;37.89;31.82
11174;BME280;5643;50.856;12.088;2022-08-02T11:33:05;99662.75;;;36.46;32.52
11174;BME280;5643;50.856;12.088;2022-08-02T11:35:37;99653.09;;;37.32;34.39
11174;BME280;5643;50.856;12.088;2022-08-02T11:38:16;99657.34;;;34.30;34.14
11174;BME280;5643;50.856;12.088;2022-08-02T11:40:44;99656.75;;;36.49;34.42
11174;BME280;5643;50.856;12.088;2022-08-02T11:43:16;99641.13;;;38.04;31.53
11174;BME280;5643;50.856;12.088;2022-08-02T11:45:45;99645.22;;;38.63;33.10
11174;BME280;5643;50.856;12.088;2022-08-02T11:48:13;99637.63;;;38.60;31.31
11174;BME280;5643;50.856;12.088;2022-08-02T11:50:42;99630.56;;;39.51;30.07
11174;BME280;5643;50.856;12.088;2022-08-02T11:53:14;99636.38;;;38.85;29.06
11174;BME280;5643;50.856;12.088;2022-08-02T11:55:42;99636.22;;;38.25;31.07
11174;BME280;5643;50.856;12.088;2022-08-02T11:58:09;99638.63;;;37.65;32.00
11174;BME280;5643;50.856;12.088;2022-08-02T12:00:38;99643.34;;;36.97;31.37
11174;BME280;5643;50.856;12.088;2022-08-02T12:03:06;99649.72;;;35.84;33.21
11174;BME280;5643;50.856;12.088;2022-08-02T12:05:34;99639.72;;;37.64;30.43
11174;BME280;5643;50.856;12.088;2022-08-02T12:08:07;99646.88;;;34.74;33.94
11174;BME280;5643;50.856;12.088;2022-08-02T12:10:34;99641.38;;;35.50;32.95
11174;BME280;5643;50.856;12.088;2022-08-02T12:13:02;99641.66;;;36.72;32.89
11174;BME280;5643;50.856;12.088;2022-08-02T12:15:31;99631.28;;;39.56;29.38
11174;BME280;5643;50.856;12.088;2022-08-02T12:18:00;99635.75;;;37.75;30.63
11174;BME280;5643;50.856;12.088;2022-08-02T12:20:46;99629.78;;;38.72;31.18
11174;BME280;5643;50.856;12.088;2022-08-02T12:23:15;99623.28;;;39.33;30.04
11174;BME280;5643;50.856;12.088;2022-08-02T12:25:43;99625.13;;;37.74;30.14
11174;BME280;5643;50.856;12.088;2022-08-02T12:28:15;99629.69;;;37.60;30.60
11174;BME280;5643;50.856;12.088;2022-08-02T12:30:52;99619.53;;;38.64;29.71
11174;BME280;5643;50.856;12.088;2022-08-02T12:33:20;99611.41;;;39.23;28.98
11174;BME280;5643;50.856;12.088;2022-08-02T12:35:48;99628.81;;;36.78;30.35
11174;BME280;5643;50.856;12.088;2022-08-02T12:38:17;99630.81;;;36.96;29.46
11174;BME280;5643;50.856;12.088;2022-08-02T12:40:45;99618.97;;;37.87;28.00
11174;BME280;5643;50.856;12.088;2022-08-02T12:43:18;99619.31;;;37.09;29.63
11174;BME280;5643;50.856;12.088;2022-08-02T12:45:48;99610.06;;;37.00;29.77
11174;BME280;5643;50.856;12.088;2022-08-02T12:48:28;99603.59;;;39.17;28.04
11174;BME280;5643;50.856;12.088;2022-08-02T12:50:57;99601.72;;;37.20;29.99
11174;BME280;5643;50.856;12.088;2022-08-02T12:53:31;99604.03;;;37.61;30.53
11174;BME280;5643;50.856;12.088;2022-08-02T12:56:01;99600.34;;;39.15;28.36
11174;BME280;5643;50.856;12.088;2022-08-02T12:58:29;99600.91;;;36.91;31.72
11174;BME280;5643;50.856;12.088;2022-08-02T13:00:59;99598.50;;;37.89;31.65
11174;BME280;5643;50.856;12.088;2022-08-02T13:03:27;99594.88;;;37.75;31.36
11174;BME280;5643;50.856;12.088;2022-08-02T13:05:54;99594.44;;;37.15;31.82
11174;BME280;5643;50.856;12.088;2022-08-02T13:08:22;99599.56;;;38.50;30.07
11174;BME280;5643;50.856;12.088;2022-08-02T13:10:51;99588.28;;;39.48;28.14
11174;BME280;5643;50.856;12.088;2022-08-02T13:13:32;99597.88;;;37.50;32.33
11174;BME280;5643;50.856;12.088;2022-08-02T13:16:00;99598.66;;;36.30;31.82
11174;BME280;5643;50.856;12.088;2022-08-02T13:18:27;99595.13;;;36.29;32.86
11174;BME280;5643;50.856;12.088;2022-08-02T13:20:55;99590.94;;;37.10;31.52